Whale Point, California Weather observations

Data are for observation ending at time listed.
 Day   Time    Ave.   Ave.  Ave.  Vector   Max.   Stn.    Total    Solar   Ave.  
  of    of     Air    Rel.  Wind   Wind    Wind   Baro.  Precip.   Rad.    Soil  
Year   Day     Temp.  Hum.  Speed  Dir.    Gust   Pres.                    Temp. 
2016   (PST)    F      %     mph   deg.    mph     mb.     in.     W/m2     F   
------------------------------------------------------------------------------
 123    0:00   52.3    81    3.5    79      6.9   994.6    0.00       0    71.6
 123    0:10   52.7    82    0.8   142      3.9   994.6    0.00       0    71.4
 123    0:20   52.6    84    1.2   114      1.9   994.6    0.00       0    71.3
 123    0:30   52.4    85    1.0   143      3.1   994.6    0.00       0    71.2
 123    0:40   52.3    87    1.7   169      5.0   994.6    0.00       0    71.0
 123    0:50   52.5    88    1.0   240      3.1   994.6    0.00       0    70.9
 123    1:00   52.8    89    1.4   174      4.7   994.6    0.00       0    70.8
 123    1:10   52.5    89    1.0   329      2.7   994.6    0.00       0    70.6
 123    1:20   52.6    90    1.1    13      3.7   994.6    0.00       0    70.5
 123    1:30   52.8    90    0.5   315      2.6   994.6    0.00       0    70.4
 123    1:40   52.6    90    2.2    34      4.8   994.6    0.00       0    70.2
 123    1:50   52.1    89    3.5    48      5.1   994.6    0.00       0    70.1
 123    2:00   51.7    88    3.0    61      4.5   994.2    0.00       0    70.0
 123    2:10   51.9    89    0.8    90      2.9   994.6    0.00       0    69.9
 123    2:20   51.7    89    1.3    46      3.7   994.6    0.00       0    69.8
 123    2:30   51.3    88    3.7    57      5.6   994.6    0.00       0    69.7
 123    2:40   51.1    88    2.5    63      4.2   994.6    0.00       0    69.5
 123    2:50   51.5    88    1.8    46      4.2   994.6    0.00       0    69.4
 123    3:00   51.1    88    3.1    63      4.7   994.6    0.00       0    69.3
 123    3:10   51.2    88    3.1    53      4.0   994.6    0.00       0    69.2
 123    3:20   51.2    88    2.1    74      3.4   994.6    0.00       0    69.1
 123    3:30   51.9    88    0.9    76      2.8   994.6    0.00       0    69.0
 123    3:40   52.0    88    2.0    57      4.8   994.6    0.00       0    68.9
 123    3:50   51.4    88    1.1   101      2.5   994.6    0.00       0    68.8
 123    4:00   51.4    88    0.7    22      3.0   994.6    0.00       0    68.7
 123    4:10   51.6    88    0.4   262      2.8   994.9    0.00       0    68.6
 123    4:20   51.4    88    1.9    61      3.1   994.6    0.00       0    68.5
 123    4:30   51.0    88    1.5    66      2.9   994.6    0.00       0    68.4
 123    4:40   50.8    88    0.1    89      0.8   994.6    0.00       0    68.3
 123    4:50   50.9    88    0.0     0      0.0   994.6    0.00       0    68.2
 123    5:00   51.0    88    0.4     9      1.5   994.9    0.00       0    68.1
 123    5:10   51.0    89    0.3   306      1.8   994.9    0.00       1    68.0
 123    5:20   51.1    89    2.1    24      3.8   995.3    0.00       3    67.9
 123    5:30   50.9    89    2.2    38      3.7   995.3    0.00       6    67.8
 123    5:40   51.0    90    2.7    35      3.9   995.6    0.00      10    67.7
 123    5:50   51.0    90    2.6    45      3.9   995.6    0.00      16    67.6
 123    6:00   50.9    90    2.0    40      3.3   995.6    0.00      42    67.5
 123    6:10   51.0    90    1.2    39      2.3   995.6    0.00      55    67.4
 123    6:20   51.1    90    0.2    43      1.4   995.9    0.00      66    67.4
 123    6:30   51.4    90    0.3   257      1.3   995.9    0.00      72    67.3
 123    6:40   51.6    90    0.9   341      2.6   996.3    0.00      70    67.2
 123    6:50   51.7    89    0.5   318      2.6   996.3    0.00      81    67.1
 123    7:00   52.0    89    0.4   267      2.3   996.6    0.00      94    67.1
 123    7:10   52.0    89    0.6   311      1.3   996.6    0.00     102    67.0
 123    7:20   52.2    89    0.7   276      1.7   996.6    0.00     119    66.9
 123    7:30   52.6    88    1.5   248      3.4   996.6    0.00     160    66.9
 123    7:40   52.8    88    2.5   224      4.1   996.6    0.00     199    66.8
 123    7:50   52.8    88    2.7   219      4.5   996.6    0.00     209    66.8
 123    8:00   53.2    88    2.7   206      5.0   996.6    0.00     207    66.7
 123    8:10   53.0    87    1.9   216      3.4   997.0    0.00     201    66.7
 123    8:20   53.2    87    3.1   215      4.6   997.0    0.00     222    66.6
 123    8:30   53.7    87    1.4   191      4.6   997.0    0.00     288    66.6
 123    8:40  99999.0   99999  99999.0   99999    99999.0   99999.0   99999.00   99999    99999.0
 123    8:50  99999.0   99999  99999.0   99999    99999.0   99999.0   99999.00   99999    99999.0
 123    9:00  99999.0   99999  99999.0   99999    99999.0   99999.0   99999.00   99999    99999.0
 123    9:10  99999.0   99999  99999.0   99999    99999.0   99999.0   99999.00   99999    99999.0
 123    9:20  99999.0   99999  99999.0   99999    99999.0   99999.0   99999.00   99999    99999.0
 123    9:30  99999.0   99999  99999.0   99999    99999.0   99999.0   99999.00   99999    99999.0
 123    9:40  99999.0   99999  99999.0   99999    99999.0   99999.0   99999.00   99999    99999.0
 123    9:50  99999.0   99999  99999.0   99999    99999.0   99999.0   99999.00   99999    99999.0
 123   10:00  99999.0   99999  99999.0   99999    99999.0   99999.0   99999.00   99999    99999.0
 123   10:10  99999.0   99999  99999.0   99999    99999.0   99999.0   99999.00   99999    99999.0
 123   10:20  99999.0   99999  99999.0   99999    99999.0   99999.0   99999.00   99999    99999.0
 123   10:30  99999.0   99999  99999.0   99999    99999.0   99999.0   99999.00   99999    99999.0
 123   10:40  99999.0   99999  99999.0   99999    99999.0   99999.0   99999.00   99999    99999.0
 123   10:50  99999.0   99999  99999.0   99999    99999.0   99999.0   99999.00   99999    99999.0
 123   11:00  99999.0   99999  99999.0   99999    99999.0   99999.0   99999.00   99999    99999.0
 123   11:10  99999.0   99999  99999.0   99999    99999.0   99999.0   99999.00   99999    99999.0
 123   11:20  99999.0   99999  99999.0   99999    99999.0   99999.0   99999.00   99999    99999.0
 123   11:30  99999.0   99999  99999.0   99999    99999.0   99999.0   99999.00   99999    99999.0
 123   11:40  99999.0   99999  99999.0   99999    99999.0   99999.0   99999.00   99999    99999.0
 123   11:50  99999.0   99999  99999.0   99999    99999.0   99999.0   99999.00   99999    99999.0
 123   12:00  99999.0   99999  99999.0   99999    99999.0   99999.0   99999.00   99999    99999.0
 123   12:10  99999.0   99999  99999.0   99999    99999.0   99999.0   99999.00   99999    99999.0
 123   12:20  99999.0   99999  99999.0   99999    99999.0   99999.0   99999.00   99999    99999.0
 123   12:30  99999.0   99999  99999.0   99999    99999.0   99999.0   99999.00   99999    99999.0
 123   12:40   57.3    82    4.4   223      6.4   996.6    0.00     636    67.8
 123   12:50   58.2    80    4.8   222      6.7   996.6    0.00     662    68.0
 123   13:00   57.6    81    4.5   228      6.9   996.6    0.00     466    68.1
 123   13:10   57.5    82    4.7   218      6.9   996.6    0.00     529    68.3
 123   13:20   57.6    82    4.6   234      6.9   996.6    0.00     559    68.4
 123   13:30  99999.0   99999  99999.0   99999    99999.0   99999.0   99999.00   99999    99999.0
 123   13:40   56.8    84    4.5   231      6.6   996.6    0.00     502    68.7
 123   13:50   56.9    84    4.3   227      6.9   996.3    0.00     504    68.9
 123   14:00   56.6    84    4.2   225      6.0   996.3    0.00     469    69.0
 123   14:10   57.5    82    4.8   231      7.1   995.9    0.00     595    69.2
 123   14:20   57.4    82    5.3   234      7.2   995.9    0.00     525    69.3
 123   14:30   57.1    82    5.5   235      7.7   995.9    0.00     631    69.5
 123   14:40   57.0    82    5.3   226      7.5   995.9    0.00     532    69.6
 123   14:50   57.1    81    4.0   235      9.3   995.9    0.00     514    69.7
 123   15:00   57.9    80    3.5   239      8.0   995.9    0.00     512    69.9
 123   15:10   58.5    78    4.8   229      8.6   995.6    0.00     578    70.0
 123   15:20   58.2    78    5.5   228      8.3   995.6    0.00     538    70.1
 123   15:30   57.8    79    4.9   234      8.6   995.6    0.00     438    70.3
 123   15:40   57.2    81    2.8   254      8.0   995.9    0.00     323    70.4
 123   15:50   56.9    81    2.3   283      8.3   995.9    0.00     247    70.6
 123   16:00   55.9    84    2.0   310      5.4   995.9    0.00     216    70.7
 123   16:10   55.8    84    2.5   310      5.5   995.9    0.00     177    70.8
 123   16:20   55.3    84    2.5   320      6.4   995.9    0.00     136    71.0
 123   16:30   55.0    85    3.2   295      8.5   995.9    0.00     126    71.1
 123   16:40   54.7    86    2.5   242      6.4   995.9    0.00     120    71.2
 123   16:50   55.1    86    2.5   239      7.2   995.6    0.00     103    71.2
 123   17:00   54.3    86    3.2   298      7.7   995.6    0.00     117    71.3
 123   17:10   54.1    87    3.0   272      8.5   995.6    0.00     117    71.4
 123   17:20   54.2    87    2.3   295      6.6   995.3    0.00     107    71.5
 123   17:30   54.3    87    2.6   274      6.9   995.3    0.00      76    71.5
 123   17:40   54.1    86    3.6   266      7.3   995.3    0.00      77    71.5
 123   17:50   54.0    86    2.9   285      7.7   995.6    0.00      73    71.6
 123   18:00   53.6    87    4.0   320      9.2   995.6    0.00      63    71.6
 123   18:10   53.5    88    2.3   284      5.8   995.3    0.00      56    71.6
 123   18:20   53.9    88    1.5   274      4.5   995.3    0.00      51    71.6
 123   18:30   53.8    88    1.6   280      5.2   995.3    0.00      40    71.6
 123   18:40   53.3    88    2.0   274      6.3   995.3    0.00      21    71.6
 123   18:50   52.9    88    2.4   285      6.1   995.3    0.00       7    71.6
 123   19:00   52.8    89    1.2   252      4.8   995.3    0.00       2    71.5
 123   19:10   52.6    89    0.4   153      2.7   995.3    0.00       1    71.5
 123   19:20   52.5    90    0.9   269      3.1   995.3    0.00       0    71.4
 123   19:30   52.5    90    0.4   126      1.9   995.3    0.00       0    71.4
 123   19:40   52.5    90    0.6   237      3.1   995.3    0.00       0    71.3
 123   19:50   52.5    90    1.2   264      3.4   995.6    0.00       0    71.3
 123   20:00   52.4    90    1.8   295      4.8   995.6    0.00       0    71.2
 123   20:10   52.3    91    0.3    63      2.8   995.9    0.00       0    71.2
 123   20:20   52.4    91    0.7    17      2.7   995.9    0.00       0    71.1
 123   20:30   52.2    91    0.8   352      2.1   995.6    0.00       0    71.0
 123   20:40   52.2    91    0.5   319      1.8   995.9    0.00       0    70.9
 123   20:50   52.1    91    1.0   335      2.9   995.9    0.00       0    70.8
 123   21:00   52.0    91    1.0   340      4.3   995.6    0.00       0    70.8
 123   21:10   52.0    92    1.7   233      5.0   995.9    0.00       0    70.7
 123   21:20   51.8    92    1.8   334      5.5   995.9    0.00       0    70.6
 123   21:30   51.7    92    1.4   328      4.2   995.6    0.00       0    70.5
 123   21:40   51.6    92    1.8   327      3.4   995.6    0.00       0    70.4
 123   21:50   51.4    92    1.8   269      5.5   995.6    0.00       0    70.3
 123   22:00   51.4    92    1.1   278      4.8   995.6    0.00       0    70.3
 123   22:10   51.3    92    0.1   284      0.9   995.3    0.00       0    70.2
 123   22:20   51.3    92    0.5   226      2.8   995.3    0.00       0    70.1
 123   22:30   51.3    92    0.6   269      2.6   995.3    0.00       0    70.0
 123   22:40   51.0    92    2.8   342      4.7   995.3    0.00       0    70.0
 123   22:50   50.7    92    1.2   314      4.6   995.3    0.00       0    69.9
 123   23:00   50.6    92    0.5   354      2.1   994.9    0.00       0    69.7
 123   23:10   50.5    93    0.3   189      2.4   994.9    0.00       0    69.7
 123   23:20   50.7    93    2.9   231      6.6   995.3    0.00       0    69.6
 123   23:30   50.7    93    1.2   303      3.7   995.3    0.00       0    69.5

Return to Whale Point graphs page.


Western Regional Climate Center,wrcc@dri.edu